Time;durP1;ratioP1;P1;durP2;ratioP2;P2;SDS_P1;SDS_P2;PMS_P1;PMS_P2;Temp;Humidity;BMP_temperature;BMP_pressure;BME280_temperature;BME280_humidity;BME280_pressure;Samples;Min_cycle;Max_cycle;Signal;HPM_P1;HPM_P2
2021/12/23 00:00:13;;;;;;;2.05;1.50;;;21.00;27.50;;;;;;5129957;28;20114;-66
2021/12/23 00:02:39;;;;;;;2.85;1.90;;;21.10;27.40;;;;;;5128608;28;20031;-66
2021/12/23 00:05:07;;;;;;;2.28;1.33;;;21.10;27.30;;;;;;5128766;27;20066;-66
2021/12/23 00:07:35;;;;;;;2.00;1.80;;;21.00;27.40;;;;;;5128633;28;20131;-69
2021/12/23 00:10:05;;;;;;;2.20;1.63;;;20.80;27.50;;;;;;5128780;28;20088;-66
2021/12/23 00:12:34;;;;;;;2.20;1.33;;;20.70;27.70;;;;;;5128523;28;20086;-66
2021/12/23 00:15:04;;;;;;;2.63;2.03;;;20.40;27.90;;;;;;5129960;27;20043;-67
2021/12/23 00:25:41;;;;;;;2.35;1.95;;;19.30;28.90;;;;;;5128486;28;20047;-68
2021/12/23 00:28:07;;;;;;;2.13;1.90;;;18.90;29.20;;;;;;5130383;28;20043;-66
2021/12/23 00:30:33;;;;;;;3.25;1.92;;;18.60;29.40;;;;;;5129005;28;20053;-70
2021/12/23 00:33:01;;;;;;;3.45;2.53;;;18.30;29.70;;;;;;5128813;28;20071;-69
2021/12/23 00:35:27;;;;;;;2.72;2.20;;;18.00;30.00;;;;;;5128730;28;20039;-69
2021/12/23 00:38:00;;;;;;;1.92;1.73;;;17.80;30.30;;;;;;5128984;28;20054;-68
2021/12/23 00:40:26;;;;;;;2.75;2.42;;;17.50;30.60;;;;;;5129024;28;20047;-66
2021/12/23 00:42:52;;;;;;;2.45;2.17;;;17.30;31.00;;;;;;5128991;28;20051;-67
2021/12/23 00:45:18;;;;;;;3.28;2.67;;;17.10;31.20;;;;;;5129861;27;20119;-66
2021/12/23 00:47:44;;;;;;;1.88;1.65;;;16.90;31.50;;;;;;5128594;28;20075;-69
2021/12/23 00:50:09;;;;;;;3.70;2.58;;;16.70;31.80;;;;;;5129834;28;20326;-70
2021/12/23 00:52:37;;;;;;;2.10;1.90;;;16.60;32.00;;;;;;5128423;28;20031;-70
2021/12/23 00:55:09;;;;;;;2.42;2.15;;;16.40;32.20;;;;;;5128382;28;20513;-69
2021/12/23 00:57:39;;;;;;;2.75;2.28;;;16.30;32.40;;;;;;5128361;28;20051;-70
2021/12/23 01:00:09;;;;;;;2.33;2.08;;;16.10;32.60;;;;;;5128335;28;20058;-70
2021/12/23 01:02:43;;;;;;;2.53;2.15;;;16.00;32.90;;;;;;5128270;28;20058;-70
2021/12/23 01:05:09;;;;;;;3.05;2.40;;;15.90;33.00;;;;;;5128326;28;20106;-69
2021/12/23 01:07:34;;;;;;;4.90;2.60;;;15.80;33.20;;;;;;5128231;28;20044;-69
2021/12/23 01:10:00;;;;;;;2.60;2.38;;;15.80;33.30;;;;;;5128355;28;20042;-66
2021/12/23 01:12:32;;;;;;;2.33;2.13;;;15.70;33.70;;;;;;5129492;28;20394;-69
2021/12/23 01:15:10;;;;;;;2.50;2.15;;;15.70;33.50;;;;;;5128318;28;20043;-67
2021/12/23 01:20:30;;;;;;;2.60;2.20;;;15.60;33.70;;;;;;5128932;28;20579;-68
2021/12/23 01:22:58;;;;;;;2.25;2.03;;;15.50;33.70;;;;;;5127901;28;20082;-66
2021/12/23 01:25:28;;;;;;;3.95;2.70;;;15.50;33.80;;;;;;5128003;28;20055;-70
2021/12/23 01:27:54;;;;;;;3.08;2.55;;;15.50;33.90;;;;;;5128115;28;20042;-69
2021/12/23 01:30:24;;;;;;;2.83;2.20;;;15.50;33.90;;;;;;5127736;28;20088;-71
2021/12/23 01:32:52;;;;;;;2.90;2.57;;;15.40;34.00;;;;;;5123248;27;20067;-70
2021/12/23 01:35:19;;;;;;;2.97;2.70;;;15.40;34.00;;;;;;5113990;28;20032;-66
2021/12/23 01:37:44;;;;;;;3.67;2.85;;;15.40;34.10;;;;;;5113809;28;20040;-69
2021/12/23 01:40:13;;;;;;;2.65;2.45;;;15.40;34.10;;;;;;5115160;28;20084;-67
2021/12/23 01:42:39;;;;;;;2.55;2.25;;;15.30;34.10;;;;;;5115190;28;20035;-66
2021/12/23 01:45:17;;;;;;;3.10;2.42;;;15.30;34.20;;;;;;5113653;28;20138;-67
2021/12/23 01:47:45;;;;;;;3.95;2.75;;;15.30;34.30;;;;;;5114974;28;20432;-70
2021/12/23 01:50:13;;;;;;;2.83;2.53;;;15.20;34.30;;;;;;5114971;28;20039;-68
2021/12/23 01:52:39;;;;;;;2.58;2.35;;;15.20;34.40;;;;;;5113568;28;20049;-69
2021/12/23 01:55:07;;;;;;;2.95;2.65;;;15.10;34.40;;;;;;5114870;28;20071;-66
2021/12/23 01:57:33;;;;;;;4.07;2.78;;;15.10;34.50;;;;;;5114662;28;20118;-69
2021/12/23 02:00:00;;;;;;;3.08;2.67;;;15.10;34.60;;;;;;5113358;28;20084;-66
2021/12/23 02:02:26;;;;;;;3.47;3.00;;;15.00;34.70;;;;;;5114820;27;20035;-70
2021/12/23 02:04:52;;;;;;;4.18;3.00;;;15.00;34.70;;;;;;5113414;28;20044;-69
2021/12/23 02:07:21;;;;;;;2.75;2.55;;;14.90;34.70;;;;;;5113244;28;20376;-69
2021/12/23 02:09:48;;;;;;;3.15;2.47;;;14.90;34.90;;;;;;5113301;28;20040;-69
2021/12/23 02:12:15;;;;;;;4.10;2.00;;;14.90;34.90;;;;;;5114477;28;20042;-66
2021/12/23 02:14:41;;;;;;;3.00;2.65;;;14.90;35.00;;;;;;5113274;28;20100;-69
2021/12/23 02:17:07;;;;;;;3.30;2.30;;;14.90;35.00;;;;;;5113057;28;20043;-69
2021/12/23 02:19:32;;;;;;;3.53;2.70;;;14.90;35.00;;;;;;5113418;28;20067;-66
2021/12/23 02:21:58;;;;;;;3.38;3.03;;;14.80;35.00;;;;;;5114002;28;20406;-69
2021/12/23 02:24:27;;;;;;;3.15;2.72;;;14.90;35.20;;;;;;5112964;28;20395;-66
2021/12/23 02:26:53;;;;;;;2.78;2.30;;;14.90;35.20;;;;;;5114156;28;20067;-67
2021/12/23 02:29:18;;;;;;;2.85;2.58;;;14.80;35.10;;;;;;5113088;28;20141;-70
2021/12/23 02:31:49;;;;;;;3.05;2.67;;;14.80;35.10;;;;;;5112755;28;20404;-66
2021/12/23 02:34:17;;;;;;;3.65;3.10;;;14.80;35.10;;;;;;5113055;28;20047;-66
2021/12/23 02:36:52;;;;;;;3.70;2.83;;;14.80;35.10;;;;;;5114145;28;20118;-70
2021/12/23 02:39:21;;;;;;;3.13;2.83;;;14.90;35.20;;;;;;5113945;28;20059;-68
2021/12/23 02:41:47;;;;;;;3.78;2.72;;;14.90;35.10;;;;;;5112509;28;20071;-70
2021/12/23 02:44:14;;;;;;;3.53;2.92;;;14.90;35.10;;;;;;5113160;28;20446;-70
2021/12/23 02:46:40;;;;;;;4.65;2.50;;;14.80;35.00;;;;;;5112761;28;20071;-70
2021/12/23 02:49:06;;;;;;;3.45;2.53;;;14.90;35.10;;;;;;5112725;28;20051;-70
2021/12/23 02:51:35;;;;;;;2.85;2.65;;;14.90;35.10;;;;;;5112732;28;20055;-71
2021/12/23 02:54:01;;;;;;;3.75;3.30;;;14.90;35.00;;;;;;5112483;28;20569;-69
2021/12/23 02:56:27;;;;;;;3.60;2.80;;;14.90;35.00;;;;;;5113606;28;20118;-69
2021/12/23 02:58:52;;;;;;;2.72;2.38;;;14.90;35.00;;;;;;5112538;28;20114;-69
2021/12/23 03:01:22;;;;;;;3.85;2.97;;;14.90;35.00;;;;;;5112446;28;20050;-69
2021/12/23 03:03:48;;;;;;;3.25;2.95;;;14.90;35.00;;;;;;5113513;28;20111;-69
2021/12/23 03:06:18;;;;;;;3.22;2.80;;;14.90;35.00;;;;;;5113575;28;20470;-66
2021/12/23 03:08:47;;;;;;;2.42;2.20;;;14.90;34.90;;;;;;5112419;28;20043;-69
2021/12/23 03:11:16;;;;;;;3.55;2.85;;;14.90;35.00;;;;;;5112331;28;20082;-69
2021/12/23 03:13:42;;;;;;;3.28;2.67;;;14.90;35.00;;;;;;5112383;28;20080;-69
2021/12/23 03:16:09;;;;;;;3.65;3.22;;;14.90;35.00;;;;;;5112038;28;20039;-69
2021/12/23 03:18:35;;;;;;;3.42;2.90;;;15.00;35.00;;;;;;5112023;28;20051;-70
2021/12/23 03:21:02;;;;;;;2.92;2.63;;;14.90;34.90;;;;;;5112873;28;20058;-70
2021/12/23 03:23:27;;;;;;;2.95;2.65;;;14.90;35.00;;;;;;5113166;27;20044;-71
2021/12/23 03:25:54;;;;;;;3.65;3.28;;;14.90;35.00;;;;;;5111182;28;20043;-69
2021/12/23 03:28:20;;;;;;;3.67;2.83;;;14.90;35.00;;;;;;5111561;28;20039;-70
2021/12/23 03:30:46;;;;;;;3.17;2.88;;;14.90;35.00;;;;;;5113072;28;20083;-66
2021/12/23 03:33:12;;;;;;;3.35;3.03;;;14.90;35.10;;;;;;5112034;28;20049;-70
2021/12/23 03:35:38;;;;;;;4.20;2.90;;;14.90;35.10;;;;;;5111589;28;20044;-69
2021/12/23 03:38:05;;;;;;;3.55;3.25;;;14.90;35.10;;;;;;5112940;28;20047;-71
2021/12/23 03:40:31;;;;;;;2.90;2.53;;;14.90;35.10;;;;;;5111733;28;20035;-67
2021/12/23 03:42:56;;;;;;;3.28;2.95;;;14.80;35.10;;;;;;5111590;28;20368;-69
2021/12/23 03:45:22;;;;;;;3.35;2.92;;;14.80;35.10;;;;;;5111560;28;20035;-69
2021/12/23 03:47:50;;;;;;;2.85;2.50;;;14.80;35.10;;;;;;5112926;28;20042;-71
2021/12/23 03:50:20;;;;;;;2.42;2.22;;;14.80;35.20;;;;;;5111345;28;20032;-69
2021/12/23 03:52:46;;;;;;;2.67;2.47;;;14.80;35.20;;;;;;5111470;28;20058;-70
2021/12/23 03:55:13;;;;;;;3.42;3.13;;;14.80;35.20;;;;;;5111058;28;20047;-69
2021/12/23 03:57:39;;;;;;;3.28;2.78;;;14.80;35.10;;;;;;5112616;28;20051;-70
2021/12/23 04:00:08;;;;;;;3.80;3.17;;;14.80;35.10;;;;;;5112551;28;20035;-69
2021/12/23 04:02:33;;;;;;;3.72;2.70;;;14.80;35.10;;;;;;5112485;28;20047;-69
2021/12/23 04:04:59;;;;;;;3.55;2.65;;;14.80;35.20;;;;;;5111285;28;20044;-69
2021/12/23 04:07:25;;;;;;;3.30;2.97;;;14.80;35.20;;;;;;5111284;28;20066;-69
2021/12/23 04:09:50;;;;;;;4.43;3.50;;;14.80;35.10;;;;;;5112429;28;20435;-69
2021/12/23 04:12:16;;;;;;;3.35;2.90;;;14.80;35.10;;;;;;5112324;28;20039;-66
2021/12/23 04:14:42;;;;;;;3.53;3.08;;;14.80;35.10;;;;;;5111316;28;20074;-70
2021/12/23 04:17:07;;;;;;;3.10;2.85;;;14.80;35.10;;;;;;5111032;28;20428;-70
2021/12/23 04:19:33;;;;;;;3.42;2.80;;;14.80;35.10;;;;;;5111116;28;20046;-70
2021/12/23 04:21:59;;;;;;;4.32;3.10;;;14.80;35.10;;;;;;5111987;28;20050;-70
2021/12/23 04:24:25;;;;;;;3.95;3.20;;;14.80;35.10;;;;;;5111237;28;20397;-70
2021/12/23 04:26:51;;;;;;;3.60;3.30;;;14.80;35.10;;;;;;5110844;28;20043;-66
2021/12/23 04:29:17;;;;;;;5.05;3.13;;;14.80;35.10;;;;;;5111263;28;20051;-70
2021/12/23 04:31:43;;;;;;;3.53;3.22;;;14.80;35.10;;;;;;5110922;28;20115;-69
2021/12/23 04:34:09;;;;;;;3.33;3.03;;;14.80;35.20;;;;;;5111130;28;20136;-69
2021/12/23 04:36:35;;;;;;;3.80;2.97;;;14.80;35.20;;;;;;5112106;28;20043;-69
2021/12/23 04:39:01;;;;;;;3.50;2.97;;;14.80;35.20;;;;;;5110946;28;20047;-68
2021/12/23 04:41:27;;;;;;;3.33;3.03;;;14.80;35.90;;;;;;5110889;28;20402;-72
2021/12/23 04:43:54;;;;;;;2.95;2.72;;;14.80;35.20;;;;;;5112127;28;20023;-69
2021/12/23 04:46:23;;;;;;;3.08;2.63;;;14.80;35.10;;;;;;5110960;28;20517;-66
2021/12/23 04:48:50;;;;;;;3.83;3.33;;;14.80;35.10;;;;;;5110790;28;20124;-70
2021/12/23 04:51:16;;;;;;;3.38;2.72;;;14.80;35.20;;;;;;5111151;28;20070;-70
2021/12/23 04:53:44;;;;;;;3.78;3.45;;;14.80;35.20;;;;;;5111962;28;20040;-69
2021/12/23 04:56:11;;;;;;;3.97;2.92;;;14.80;35.20;;;;;;5110710;28;20051;-70
2021/12/23 04:58:36;;;;;;;3.70;3.38;;;14.80;35.20;;;;;;5110604;28;20059;-70
2021/12/23 05:01:05;;;;;;;3.13;2.88;;;14.80;35.20;;;;;;5112184;28;20126;-71
2021/12/23 05:03:31;;;;;;;3.13;2.55;;;14.80;35.20;;;;;;5111967;28;20044;-70
2021/12/23 05:05:57;;;;;;;3.38;2.90;;;14.80;35.20;;;;;;5110843;28;20143;-69
2021/12/23 05:08:22;;;;;;;2.70;2.50;;;14.80;35.20;;;;;;5113610;28;20120;-70
2021/12/23 05:10:48;;;;;;;4.20;2.88;;;14.80;35.20;;;;;;5115676;28;20122;-69
2021/12/23 05:13:14;;;;;;;3.35;2.75;;;14.80;35.20;;;;;;5115621;28;20040;-71
2021/12/23 05:15:40;;;;;;;3.30;3.00;;;14.80;35.20;;;;;;5114773;28;20035;-69
2021/12/23 05:18:06;;;;;;;3.35;3.05;;;14.80;35.20;;;;;;5114577;28;20040;-70
2021/12/23 05:20:32;;;;;;;3.35;2.75;;;14.80;35.20;;;;;;5113967;28;20123;-69
2021/12/23 05:22:58;;;;;;;4.22;3.05;;;14.80;35.20;;;;;;5114551;28;20127;-70
2021/12/23 05:25:24;;;;;;;3.35;2.70;;;14.80;35.20;;;;;;5114491;28;20079;-69
2021/12/23 05:27:52;;;;;;;3.65;3.17;;;14.80;35.20;;;;;;5114116;28;20040;-69
2021/12/23 05:30:18;;;;;;;4.32;3.88;;;14.80;35.20;;;;;;5114060;28;20092;-69
2021/12/23 05:32:45;;;;;;;3.70;2.83;;;14.90;35.20;;;;;;5115345;28;20043;-67
2021/12/23 05:35:13;;;;;;;3.17;2.88;;;14.90;35.30;;;;;;5113447;28;20058;-71
2021/12/23 05:37:39;;;;;;;3.45;2.60;;;14.90;35.30;;;;;;5114004;28;20054;-69
2021/12/23 05:40:06;;;;;;;4.40;3.50;;;14.90;35.20;;;;;;5115063;28;20027;-66
2021/12/23 05:42:32;;;;;;;4.60;3.33;;;14.90;35.20;;;;;;5113805;28;20067;-67
2021/12/23 05:44:58;;;;;;;3.33;2.97;;;14.90;35.20;;;;;;5115235;28;20144;-66
2021/12/23 05:47:23;;;;;;;3.55;3.15;;;14.80;35.20;;;;;;5113779;28;20616;-66
2021/12/23 05:49:49;;;;;;;3.38;2.70;;;14.90;35.20;;;;;;5113722;28;20122;-66
2021/12/23 05:52:15;;;;;;;3.92;3.08;;;14.80;35.20;;;;;;5114986;28;20042;-68
2021/12/23 05:54:41;;;;;;;3.83;3.15;;;14.90;35.30;;;;;;5113414;28;20092;-69
2021/12/23 05:57:06;;;;;;;3.50;2.95;;;14.80;35.20;;;;;;5113501;28;20088;-66
2021/12/23 05:59:34;;;;;;;4.70;3.15;;;14.90;35.30;;;;;;5114780;28;20035;-66
2021/12/23 06:02:05;;;;;;;3.47;3.17;;;14.80;35.30;;;;;;5114905;28;20605;-69
2021/12/23 06:04:32;;;;;;;4.35;3.17;;;14.80;35.30;;;;;;5114654;28;20483;-69
2021/12/23 06:06:57;;;;;;;4.32;2.92;;;14.80;35.30;;;;;;5113462;28;20062;-69
2021/12/23 06:09:23;;;;;;;3.80;3.45;;;14.90;35.40;;;;;;5113346;28;20057;-67
2021/12/23 06:11:49;;;;;;;3.75;3.35;;;14.80;35.30;;;;;;5114399;28;20039;-66
2021/12/23 06:14:16;;;;;;;4.13;3.10;;;14.80;35.30;;;;;;5113267;28;20039;-65
2021/12/23 06:16:42;;;;;;;3.83;2.97;;;14.80;35.30;;;;;;5113329;28;20043;-66
2021/12/23 06:19:08;;;;;;;3.97;3.20;;;14.80;35.40;;;;;;5113433;28;20043;-66
2021/12/23 06:21:33;;;;;;;3.45;2.88;;;14.80;35.50;;;;;;5112769;28;20059;-68
2021/12/23 06:24:02;;;;;;;3.13;2.83;;;14.80;35.40;;;;;;5113071;28;20043;-66
2021/12/23 06:26:28;;;;;;;3.65;3.35;;;14.80;35.40;;;;;;5114221;28;20043;-69
2021/12/23 06:28:53;;;;;;;3.90;3.60;;;14.80;35.40;;;;;;5114242;28;20042;-66
2021/12/23 06:31:19;;;;;;;4.05;3.72;;;14.80;35.50;;;;;;5113155;28;20047;-66
2021/12/23 06:33:45;;;;;;;5.43;3.28;;;14.80;35.50;;;;;;5112798;28;20474;-69
2021/12/23 06:36:13;;;;;;;3.88;3.00;;;14.80;35.50;;;;;;5114224;28;20042;-69
2021/12/23 06:38:41;;;;;;;3.92;3.50;;;14.80;35.50;;;;;;5112781;28;20092;-66
2021/12/23 06:41:06;;;;;;;4.30;3.05;;;14.80;35.50;;;;;;5112790;28;20054;-66
2021/12/23 06:43:32;;;;;;;3.85;3.45;;;14.80;35.60;;;;;;5112982;28;20035;-66
2021/12/23 06:45:58;;;;;;;4.22;3.13;;;14.80;35.60;;;;;;5112647;28;20617;-66
2021/12/23 06:48:23;;;;;;;3.33;2.97;;;14.80;35.60;;;;;;5112663;28;20043;-66
2021/12/23 06:50:53;;;;;;;3.75;3.33;;;14.80;35.60;;;;;;5112491;28;20078;-66
2021/12/23 06:53:19;;;;;;;3.63;3.07;;;14.70;35.60;;;;;;5112057;28;20114;-70
2021/12/23 06:55:45;;;;;;;2.70;2.05;;;14.70;36.40;;;;;;5093669;28;20365;-66
2021/12/23 06:58:11;;;;;;;2.40;1.88;;;14.80;37.70;;;;;;5107250;28;20050;-66
2021/12/23 07:00:36;;;;;;;2.70;2.40;;;15.00;38.90;;;;;;5111151;28;20092;-66
2021/12/23 07:03:03;;;;;;;2.85;2.45;;;15.30;39.20;;;;;;5111966;28;20123;-66
2021/12/23 07:05:28;;;;;;;3.35;2.05;;;15.60;39.20;;;;;;5112484;28;20471;-66
2021/12/23 07:07:57;;;;;;;2.78;2.28;;;15.80;39.00;;;;;;5112415;28;20035;-66
2021/12/23 07:10:26;;;;;;;2.70;2.20;;;15.90;38.80;;;;;;5113431;28;20043;-65
2021/12/23 07:12:54;;;;;;;3.15;2.17;;;16.10;38.80;;;;;;5112309;28;20449;-66
2021/12/23 07:15:20;;;;;;;3.38;2.58;;;16.20;38.50;;;;;;5112392;28;20044;-66
2021/12/23 07:17:45;;;;;;;2.97;2.38;;;16.30;38.40;;;;;;5112214;28;20150;-69
2021/12/23 07:20:11;;;;;;;2.13;1.73;;;16.40;38.20;;;;;;5113311;28;20376;-69
2021/12/23 07:22:37;;;;;;;3.42;2.50;;;16.50;38.00;;;;;;5110867;28;20087;-66
2021/12/23 07:25:04;;;;;;;3.33;2.35;;;16.50;38.00;;;;;;5109826;28;20524;-66
2021/12/23 07:27:29;;;;;;;2.80;2.60;;;16.60;37.80;;;;;;5112428;28;20039;-66
2021/12/23 07:29:55;;;;;;;2.83;2.28;;;16.70;37.60;;;;;;5111899;28;20390;-68
2021/12/23 07:32:21;;;;;;;3.05;2.50;;;16.70;37.60;;;;;;5109257;28;20092;-66
2021/12/23 07:34:46;;;;;;;3.20;2.60;;;16.80;37.50;;;;;;5097983;28;20036;-66
2021/12/23 07:37:12;;;;;;;3.10;2.40;;;16.80;37.40;;;;;;5090373;28;20036;-66
2021/12/23 07:39:38;;;;;;;2.22;2.03;;;16.80;37.40;;;;;;5097743;28;20532;-69
2021/12/23 07:42:06;;;;;;;4.75;2.47;;;16.90;37.30;;;;;;5104270;28;20114;-72
2021/12/23 07:44:35;;;;;;;3.03;2.35;;;16.90;37.20;;;;;;5090566;28;20484;-69
2021/12/23 07:47:02;;;;;;;3.15;2.47;;;16.90;37.30;;;;;;5091774;28;20077;-66
2021/12/23 07:49:27;;;;;;;3.13;2.08;;;16.90;37.10;;;;;;5090745;28;20464;-66
2021/12/23 07:51:54;;;;;;;2.38;2.13;;;17.00;37.10;;;;;;5105123;28;20064;-66
2021/12/23 07:54:19;;;;;;;2.33;2.13;;;17.00;37.10;;;;;;5099394;28;20480;-69
2021/12/23 07:56:46;;;;;;;2.53;2.33;;;17.00;37.10;;;;;;5092814;28;20051;-68
2021/12/23 07:59:14;;;;;;;2.40;2.10;;;17.00;37.10;;;;;;5092336;28;20032;-66
2021/12/23 08:01:40;;;;;;;2.88;2.45;;;17.00;37.10;;;;;;5102237;28;20036;-67
2021/12/23 08:04:06;;;;;;;2.55;2.33;;;17.00;37.10;;;;;;5103881;28;20488;-68
2021/12/23 08:06:32;;;;;;;3.53;2.47;;;17.00;37.10;;;;;;5102526;28;20039;-68
2021/12/23 08:08:57;;;;;;;3.38;2.40;;;17.00;37.20;;;;;;5103381;28;20093;-68
2021/12/23 08:11:23;;;;;;;3.50;2.40;;;17.00;37.10;;;;;;5104268;28;20491;-69
2021/12/23 08:13:49;;;;;;;3.72;2.08;;;17.00;37.20;;;;;;5097668;28;20044;-67
2021/12/23 08:16:14;;;;;;;11.38;2.40;;;17.00;37.40;;;;;;5108455;28;20027;-66
2021/12/23 08:18:40;;;;;;;2.33;2.08;;;17.10;37.60;;;;;;5105227;28;20160;-68
2021/12/23 08:21:06;;;;;;;2.45;2.00;;;17.10;37.60;;;;;;5105967;28;20059;-67
2021/12/23 08:23:32;;;;;;;3.85;2.05;;;17.10;37.50;;;;;;5105546;28;20043;-67
2021/12/23 08:26:02;;;;;;;3.78;2.30;;;17.10;37.40;;;;;;5107862;28;20034;-65
2021/12/23 08:28:31;;;;;;;3.05;2.60;;;17.10;37.60;;;;;;5106702;28;20712;-66
2021/12/23 08:30:58;;;;;;;4.32;3.00;;;17.10;38.20;;;;;;5105232;28;20449;-67
2021/12/23 08:33:25;;;;;;;5.45;2.85;;;17.10;38.30;;;;;;5108019;28;20199;-67
2021/12/23 08:35:50;;;;;;;3.08;2.15;;;17.10;38.40;;;;;;5106782;28;20043;-64
2021/12/23 08:38:16;;;;;;;4.00;2.42;;;17.10;38.20;;;;;;5108724;28;20555;-66
2021/12/23 08:40:42;;;;;;;2.35;2.05;;;17.10;38.20;;;;;;5105406;28;20061;-70
2021/12/23 08:43:08;;;;;;;4.75;2.50;;;17.10;38.50;;;;;;5100931;28;20854;-63
2021/12/23 08:45:35;;;;;;;2.38;2.17;;;17.00;38.60;;;;;;5112358;28;20047;-63
2021/12/23 08:48:01;;;;;;;4.25;3.08;;;17.10;38.30;;;;;;5089127;28;20050;-66
2021/12/23 08:50:30;;;;;;;5.03;2.53;;;17.00;38.30;;;;;;5112008;28;20457;-71
2021/12/23 08:52:56;;;;;;;4.15;2.22;;;17.10;38.60;;;;;;5111024;28;20047;-72
2021/12/23 08:55:27;;;;;;;3.75;2.50;;;17.20;38.30;;;;;;5109452;28;20035;-71
2021/12/23 08:57:53;;;;;;;2.88;2.22;;;17.20;38.00;;;;;;5089271;28;20075;-72
2021/12/23 09:00:19;;;;;;;5.72;2.78;;;17.20;37.90;;;;;;5109395;28;20057;-70
2021/12/23 09:02:48;;;;;;;3.08;2.78;;;17.20;38.00;;;;;;5106107;28;20040;-70
2021/12/23 09:05:14;;;;;;;2.45;2.22;;;17.30;38.20;;;;;;5111018;27;20248;-66
2021/12/23 09:07:39;;;;;;;3.35;2.38;;;17.30;38.30;;;;;;5117838;27;20081;-69
2021/12/23 09:10:07;;;;;;;5.72;2.65;;;17.20;38.50;;;;;;5118176;27;20054;-71
2021/12/23 09:12:32;;;;;;;2.00;1.67;;;17.20;38.40;;;;;;5112715;27;20100;-66
2021/12/23 09:14:58;;;;;;;2.35;2.08;;;17.20;38.20;;;;;;5114740;27;20082;-70
2021/12/23 09:17:24;;;;;;;3.22;2.72;;;17.10;38.20;;;;;;5101766;28;20036;-65
2021/12/23 09:19:53;;;;;;;2.92;2.40;;;17.10;38.10;;;;;;5101593;28;20036;-66
2021/12/23 09:22:18;;;;;;;3.22;2.92;;;17.10;38.00;;;;;;5110383;27;20487;-67
2021/12/23 09:24:48;;;;;;;4.03;3.25;;;17.10;37.90;;;;;;5111955;28;20035;-71
2021/12/23 09:33:04;;;;;;;2.65;2.25;;;17.20;38.10;;;;;;5132772;27;1181814;-65
2021/12/23 09:35:22;;;;;;;3.55;2.63;;;17.20;38.20;;;;;;5143896;27;20439;-64
2021/12/23 09:37:48;;;;;;;2.97;2.53;;;17.30;38.40;;;;;;5146106;27;20034;-70
2021/12/23 09:40:15;;;;;;;3.03;2.58;;;17.30;38.20;;;;;;5141681;27;20035;-66
2021/12/23 09:42:44;;;;;;;2.25;2.05;;;17.40;38.10;;;;;;5149662;27;20819;-65
2021/12/23 09:45:14;;;;;;;2.80;2.17;;;17.40;38.30;;;;;;5148649;27;20045;-64
2021/12/23 09:47:41;;;;;;;2.78;2.50;;;17.40;38.30;;;;;;5148742;27;20098;-63
2021/12/23 09:50:11;;;;;;;4.05;2.53;;;17.40;38.00;;;;;;5144034;27;20047;-64
2021/12/23 09:52:45;;;;;;;4.50;2.90;;;17.40;37.90;;;;;;5150998;27;20046;-69
2021/12/23 09:55:14;;;;;;;3.22;2.90;;;17.40;38.20;;;;;;5148565;27;20042;-66
2021/12/23 09:57:41;;;;;;;3.28;2.97;;;17.40;38.00;;;;;;5149740;27;20045;-64
2021/12/23 10:00:11;;;;;;;4.25;2.50;;;17.40;38.00;;;;;;5150016;27;20045;-63
2021/12/23 10:02:40;;;;;;;2.65;2.45;;;17.40;38.30;;;;;;5145780;27;20031;-63
2021/12/23 10:05:09;;;;;;;2.73;2.53;;;17.50;38.30;;;;;;5149471;27;20042;-66
2021/12/23 10:07:35;;;;;;;2.85;2.45;;;17.40;38.00;;;;;;5146346;27;20045;-63
2021/12/23 10:10:09;;;;;;;3.58;2.45;;;17.50;38.10;;;;;;5147248;27;20117;-63
2021/12/23 10:27:14;;;;;;;5.68;3.55;;;17.40;38.00;;;;;;5159158;27;20054;-68
2021/12/23 10:38:18;;;;;;;2.90;2.40;;;17.40;38.20;;;;;;5128052;27;20058;-63
2021/12/23 10:40:47;;;;;;;4.85;3.03;;;17.50;38.20;;;;;;5101933;27;20489;-66
2021/12/23 10:49:30;;;;;;;6.30;2.75;;;21.40;32.80;;;;;;5084241;28;20397;-65
2021/12/23 10:52:02;;;;;;;2.65;1.90;;;24.30;28.90;;;;;;5062110;28;20327;-65
2021/12/23 11:03:11;;;;;;;6.28;3.80;;;25.30;27.70;;;;;;5102072;27;21397;-66
2021/12/23 11:05:44;;;;;;;5.30;2.28;;;26.00;27.10;;;;;;5107101;28;20032;-65
2021/12/23 11:08:20;;;;;;;3.47;2.88;;;26.20;26.90;;;;;;5108751;28;20027;-67
2021/12/23 11:41:20;;;;;;;3.25;2.33;;;26.50;26.70;;;;;;5145050;27;20050;-63
2021/12/23 11:43:49;;;;;;;3.10;2.80;;;26.40;26.80;;;;;;5146565;27;20041;-62
2021/12/23 11:46:22;;;;;;;4.00;2.20;;;26.30;26.80;;;;;;5117309;27;20095;-69
2021/12/23 11:48:52;;;;;;;3.63;2.72;;;26.20;27.10;;;;;;5135287;27;20469;-66
2021/12/23 11:51:22;;;;;;;3.28;2.67;;;26.20;27.00;;;;;;5152727;27;20034;-65
2021/12/23 11:53:49;;;;;;;3.95;2.50;;;26.00;27.20;;;;;;5152023;27;20053;-65
2021/12/23 11:56:18;;;;;;;2.45;2.10;;;25.70;27.60;;;;;;5163933;27;20077;-66
2021/12/23 11:58:47;;;;;;;5.22;2.35;;;25.40;28.60;;;;;;5142047;27;20046;-66
2021/12/23 12:04:00;;;;;;;3.63;2.25;;;25.30;28.10;;;;;;5128959;27;20885;-65
2021/12/23 12:06:41;;;;;;;4.40;2.72;;;25.70;28.00;;;;;;5126269;27;20044;-66
2021/12/23 12:09:15;;;;;;;2.95;2.45;;;25.70;28.00;;;;;;5125260;28;20622;-66
2021/12/23 12:12:06;;;;;;;6.45;2.42;;;25.60;27.70;;;;;;5127542;27;20065;-64
2021/12/23 12:20:22;;;;;;;3.60;2.70;;;25.60;27.80;;;;;;5127638;27;20402;-65
2021/12/23 12:23:00;;;;;;;3.35;2.80;;;25.70;27.60;;;;;;5127473;28;20125;-64
2021/12/23 12:38:50;;;;;;;5.63;2.92;;;25.90;27.40;;;;;;5127362;27;20933;-64
2021/12/23 12:41:26;;;;;;;3.03;2.72;;;25.80;27.70;;;;;;5118029;28;20039;-67
2021/12/23 12:49:25;;;;;;;7.18;3.30;;;26.00;27.70;;;;;;5085029;27;20356;-63
2021/12/23 12:51:54;;;;;;;6.82;3.03;;;26.10;27.40;;;;;;5083027;28;20047;-63
2021/12/23 12:54:31;;;;;;;4.97;2.72;;;26.30;27.40;;;;;;5086185;28;20040;-66
2021/12/23 12:57:02;;;;;;;11.43;2.97;;;26.40;27.30;;;;;;5097976;28;20115;-65
2021/12/23 12:59:30;;;;;;;3.95;2.88;;;26.30;27.30;;;;;;5087757;28;20059;-65
2021/12/23 13:01:59;;;;;;;3.35;2.78;;;26.10;27.30;;;;;;5083149;28;20067;-63
2021/12/23 13:04:46;;;;;;;3.60;2.58;;;25.90;27.60;;;;;;5086662;28;20479;-63
2021/12/23 13:18:19;;;;;;;4.82;2.05;;;26.00;27.50;;;;;;5086074;28;20793;-64
2021/12/23 13:20:49;;;;;;;3.35;2.20;;;25.80;27.80;;;;;;5064326;28;20491;-63
2021/12/23 13:25:58;;;;;;;3.53;2.55;;;25.80;28.00;;;;;;5100943;27;20384;-63
2021/12/23 13:28:28;;;;;;;3.92;2.63;;;25.80;27.70;;;;;;5107090;28;20038;-63
2021/12/23 13:30:55;;;;;;;3.25;2.95;;;25.70;27.70;;;;;;5089955;28;20584;-62
2021/12/23 13:33:22;;;;;;;2.70;2.00;;;25.60;28.00;;;;;;5089050;28;20106;-63
2021/12/23 13:35:47;;;;;;;3.97;2.97;;;25.70;28.00;;;;;;5089801;28;20047;-64
2021/12/23 13:38:31;;;;;;;4.10;2.92;;;25.60;27.90;;;;;;5107168;28;20123;-66
2021/12/23 13:41:12;;;;;;;4.45;2.75;;;25.50;28.10;;;;;;5081974;28;20641;-65
2021/12/23 13:43:38;;;;;;;3.22;2.92;;;25.30;28.40;;;;;;5085331;28;20043;-65
2021/12/23 13:46:06;;;;;;;3.22;2.70;;;25.20;28.50;;;;;;5108384;28;20040;-66
2021/12/23 13:51:35;;;;;;;3.72;2.92;;;24.90;28.70;;;;;;5126798;27;20415;-64
2021/12/23 13:54:11;;;;;;;11.40;2.92;;;24.90;28.80;;;;;;5125651;27;20035;-66
2021/12/23 13:56:40;;;;;;;3.13;2.53;;;25.30;28.40;;;;;;5119641;28;20051;-65
2021/12/23 13:59:10;;;;;;;4.28;2.95;;;25.20;28.40;;;;;;5120863;28;20047;-66
2021/12/23 14:04:45;;;;;;;2.75;2.28;;;25.10;28.50;;;;;;5087000;27;20372;-64
2021/12/23 14:07:34;;;;;;;4.25;2.80;;;25.10;28.30;;;;;;5087034;28;20102;-65
2021/12/23 14:10:05;;;;;;;4.53;2.75;;;25.00;28.40;;;;;;5094234;28;20071;-64
2021/12/23 14:15:34;;;;;;;4.43;2.35;;;25.00;28.70;;;;;;5134328;27;1158435;-62
2021/12/23 14:18:05;;;;;;;3.10;2.72;;;25.50;28.20;;;;;;5152321;27;20048;-62
2021/12/23 14:23:43;;;;;;;5.57;2.70;;;25.60;28.00;;;;;;5124840;27;20408;-62
2021/12/23 14:28:53;;;;;;;9.20;5.38;;;25.50;28.20;;;;;;5128178;27;20399;-66
2021/12/23 14:31:22;;;;;;;5.60;4.10;;;25.50;27.80;;;;;;5110965;28;20055;-71
2021/12/23 14:36:33;;;;;;;3.13;2.90;;;25.60;27.90;;;;;;5109169;27;20383;-72
2021/12/23 14:47:23;;;;;;;4.22;1.90;;;25.60;27.90;;;;;;5087020;28;20187;-66
2021/12/23 14:52:53;;;;;;;2.80;2.42;;;25.80;28.10;;;;;;5106821;27;20408;-63
2021/12/23 14:55:23;;;;;;;5.05;3.05;;;26.00;28.00;;;;;;5108184;28;20148;-64
2021/12/23 15:05:50;;;;;;;6.97;5.35;;;26.10;27.50;;;;;;5128621;27;20440;-69
2021/12/23 15:08:19;;;;;;;4.95;4.15;;;25.60;27.10;;;;;;5128612;28;20059;-69
2021/12/23 15:10:51;;;;;;;4.15;3.60;;;25.50;27.40;;;;;;5129425;27;20042;-65
2021/12/23 15:13:20;;;;;;;15.40;3.67;;;25.40;27.50;;;;;;5126646;28;20164;-65
2021/12/23 15:15:54;;;;;;;4.63;2.47;;;25.80;27.40;;;;;;5127738;28;20039;-65
2021/12/23 15:18:33;;;;;;;5.28;3.33;;;26.00;27.20;;;;;;5127726;28;20576;-64
2021/12/23 15:21:00;;;;;;;6.60;3.17;;;26.20;27.10;;;;;;5127201;28;20076;-65
2021/12/23 15:23:45;;;;;;;4.53;2.85;;;26.20;27.10;;;;;;5126561;28;20036;-65
2021/12/23 15:29:18;;;;;;;4.05;2.75;;;25.70;27.50;;;;;;5089393;27;20352;-62
2021/12/23 15:31:54;;;;;;;4.82;2.67;;;25.40;27.60;;;;;;5085908;28;20071;-65
2021/12/23 15:34:20;;;;;;;3.90;3.03;;;25.20;27.80;;;;;;5086861;28;20392;-65